createdAt,value
2023-01-22T00:00:21.045Z,104215.50
2023-01-22T00:05:24.958Z,104210.91
2023-01-22T00:10:30.644Z,104209.41
2023-01-22T00:15:35.385Z,104189.72
2023-01-22T00:20:41.648Z,104201.94
2023-01-22T00:25:46.093Z,104183.53
2023-01-22T00:31:03.881Z,104165.09
2023-01-22T00:36:16.228Z,104146.53
2023-01-22T00:41:23.821Z,104131.13
2023-01-22T00:46:27.702Z,104055.19
2023-01-22T00:51:33.999Z,104091.78
2023-01-22T00:56:37.911Z,104131.13
2023-01-22T01:01:41.795Z,104111.44
2023-01-22T01:06:46.972Z,104097.94
2023-01-22T01:11:51.471Z,104123.09
2023-01-22T01:16:58.361Z,104138.69
2023-01-22T01:22:02.782Z,104132.81
2023-01-22T01:27:08.001Z,104136.44
2023-01-22T01:32:14.237Z,104140.91
2023-01-22T01:37:48.634Z,104150.38
2023-01-22T01:42:53.400Z,104137.94
2023-01-22T01:48:19.698Z,104120.38
2023-01-22T01:53:23.744Z,104116.56
2023-01-22T01:58:33.987Z,104097.22
2023-01-22T02:03:40.100Z,104107.69
2023-01-22T02:08:50.852Z,104096.41
2023-01-22T02:14:12.665Z,104104.25
2023-01-22T02:19:20.919Z,104102.16
2023-01-22T02:24:24.892Z,104092.44
2023-01-22T02:29:29.752Z,104092.78
2023-01-22T02:34:33.586Z,103970.41
2023-01-22T02:39:39.743Z,104086.19
2023-01-22T02:44:45.912Z,104068.47
2023-01-22T02:49:51.056Z,104070.66
2023-01-22T02:54:54.976Z,103956.59
2023-01-22T03:00:00.930Z,104018.59
2023-01-22T03:05:05.409Z,104025.41
2023-01-22T03:10:14.120Z,104001.34
2023-01-22T03:15:37.937Z,104047.78
2023-01-22T03:21:01.376Z,104042.22
2023-01-22T03:26:06.204Z,104048.41
2023-01-22T03:31:11.787Z,104047.66
2023-01-22T03:36:18.936Z,104017.81
2023-01-22T03:41:30.760Z,104000.41
2023-01-22T03:46:42.929Z,104010.84
2023-01-22T03:51:47.210Z,103999.66
2023-01-22T03:56:55.419Z,103985.53
2023-01-22T04:02:05.602Z,103984.69
2023-01-22T04:07:18.436Z,103986.03
2023-01-22T04:12:23.057Z,103970.06
2023-01-22T04:17:28.388Z,103976.03
2023-01-22T04:22:52.449Z,103959.56
2023-01-22T04:27:57.424Z,103959.91
2023-01-22T04:33:03.348Z,103932.38
2023-01-22T04:38:18.929Z,103937.78
2023-01-22T04:43:24.725Z,103928.41
2023-01-22T04:48:29.591Z,103912.28
2023-01-22T04:53:34.337Z,103917.06
2023-01-22T04:58:42.872Z,103827.16
2023-01-22T05:03:47.551Z,103919.78
2023-01-22T05:08:51.551Z,103898.25
2023-01-22T05:13:55.538Z,103887.16
2023-01-22T05:19:01.454Z,103888.34
2023-01-22T05:24:10.243Z,103857.41
2023-01-22T05:29:16.957Z,103848.84
2023-01-22T05:34:24.882Z,103870.06
2023-01-22T05:39:29.739Z,103797.50
2023-01-22T05:44:37.171Z,103858.47
2023-01-22T05:49:43.116Z,103841.34
2023-01-22T05:54:50.259Z,103837.00
2023-01-22T05:59:54.919Z,103824.28
2023-01-22T06:05:01.005Z,103826.88
2023-01-22T06:10:06.308Z,103829.75
2023-01-22T06:15:20.972Z,103822.41
2023-01-22T06:20:33.619Z,103805.69
2023-01-22T06:25:39.391Z,103710.22
2023-01-22T06:30:58.280Z,103780.97
2023-01-22T06:36:04.368Z,103780.06
2023-01-22T06:41:10.714Z,103787.13
2023-01-22T06:46:16.291Z,103756.09
2023-01-22T06:51:40.299Z,103767.97
2023-01-22T06:56:49.531Z,103757.91
2023-01-22T07:01:54.817Z,103753.69
2023-01-22T07:06:59.851Z,103681.88
2023-01-22T07:12:03.938Z,103725.34
2023-01-22T07:17:13.709Z,103717.94
2023-01-22T07:22:17.490Z,103703.81
2023-01-22T07:27:24.548Z,103680.69
2023-01-22T07:32:31.879Z,103681.16
2023-01-22T07:43:53.476Z,103652.97
2023-01-22T07:48:57.240Z,103538.41
2023-01-22T07:54:03.708Z,103623.59
2023-01-22T07:59:07.594Z,103614.34
2023-01-22T08:04:14.138Z,103620.63
2023-01-22T08:09:26.019Z,103615.94
2023-01-22T08:14:30.647Z,103612.44
2023-01-22T08:19:35.881Z,103601.34
2023-01-22T08:24:41.841Z,103585.66
2023-01-22T08:29:46.450Z,103576.88
2023-01-22T08:34:56.892Z,103573.38
2023-01-22T08:40:01.972Z,103565.59
2023-01-22T08:45:07.273Z,103557.34
2023-01-22T08:50:11.727Z,103550.06
2023-01-22T08:55:17.136Z,103540.88
2023-01-22T09:00:22.416Z,103534.00
2023-01-22T09:05:29.992Z,103539.34
2023-01-22T09:10:33.963Z,103530.31
2023-01-22T09:15:38.744Z,103517.97
2023-01-22T09:20:42.789Z,103481.97
2023-01-22T09:25:48.772Z,103500.50
2023-01-22T09:30:52.545Z,103472.03
2023-01-22T09:36:08.603Z,103492.00
2023-01-22T09:41:16.403Z,103476.38
2023-01-22T09:46:44.076Z,103461.63
2023-01-22T09:52:05.147Z,103477.47
2023-01-22T09:57:30.673Z,103485.84
2023-01-22T10:02:46.176Z,103457.41
2023-01-22T10:08:03.000Z,103462.53
2023-01-22T10:13:29.167Z,103449.97
2023-01-22T10:18:41.927Z,103440.03
2023-01-22T10:23:45.954Z,103423.38
2023-01-22T10:28:55.613Z,103406.25
2023-01-22T10:34:02.469Z,103400.97
2023-01-22T10:39:15.993Z,103392.47
2023-01-22T10:44:26.829Z,103389.28
2023-01-22T10:49:32.056Z,103309.09
2023-01-22T10:54:45.932Z,103366.50
2023-01-22T10:59:57.133Z,103354.88
2023-01-22T11:05:21.119Z,103343.66
2023-01-22T11:10:57.654Z,103330.38
2023-01-22T11:16:19.005Z,103316.38
2023-01-22T11:21:33.057Z,103309.09
2023-01-22T11:26:55.827Z,103284.50
2023-01-22T11:32:24.020Z,103273.06
2023-01-22T11:37:36.147Z,103256.88
2023-01-22T11:43:00.619Z,103263.69
2023-01-22T11:48:32.301Z,103259.88
2023-01-22T11:54:01.991Z,103248.13
2023-01-22T11:59:51.208Z,103251.94
2023-01-22T12:05:38.239Z,103234.56
2023-01-22T12:11:10.981Z,103219.56
2023-01-22T12:16:32.789Z,103196.28
2023-01-22T12:22:01.865Z,103175.50
2023-01-22T12:27:16.996Z,103167.22
2023-01-22T12:32:25.165Z,103148.81
2023-01-22T12:37:42.042Z,103128.88
2023-01-22T12:43:02.291Z,103135.41
2023-01-22T12:48:25.139Z,103107.72
2023-01-22T12:53:30.517Z,103091.63
2023-01-22T12:58:43.080Z,103062.19
2023-01-22T13:04:01.968Z,103051.88
2023-01-22T13:09:25.327Z,103054.00
2023-01-22T13:14:34.007Z,103027.00
2023-01-22T13:19:45.802Z,103015.25
2023-01-22T13:24:55.507Z,103006.88
2023-01-22T13:30:22.047Z,102985.16
2023-01-22T13:35:25.866Z,102977.03
2023-01-22T13:40:42.730Z,102948.03
2023-01-22T13:45:53.166Z,102957.63
2023-01-22T13:51:12.534Z,102939.53
2023-01-22T13:56:21.936Z,102922.16
2023-01-22T14:01:32.083Z,102924.13
2023-01-22T14:06:50.276Z,102910.88
2023-01-22T14:11:54.170Z,102873.06
2023-01-22T14:17:00.015Z,102865.84
2023-01-22T14:22:03.829Z,102863.34
2023-01-22T14:27:09.984Z,102841.09
2023-01-22T14:32:13.736Z,102843.81
2023-01-22T14:37:19.169Z,102830.16
2023-01-22T14:42:27.272Z,102774.72
2023-01-22T14:47:31.791Z,102794.19
2023-01-22T14:52:43.071Z,102779.66
2023-01-22T14:57:51.154Z,102762.28
2023-01-22T15:03:00.959Z,102728.81
2023-01-22T15:08:05.539Z,102727.06
2023-01-22T15:13:11.163Z,102716.41
2023-01-22T15:18:15.732Z,102623.25
2023-01-22T15:23:19.714Z,102677.28
2023-01-22T15:28:24.239Z,102680.00
2023-01-22T15:33:29.913Z,102680.31
2023-01-22T15:38:34.854Z,102675.66
2023-01-22T15:43:40.432Z,102661.63
2023-01-22T15:48:44.573Z,102642.81
2023-01-22T15:53:56.584Z,102618.22
2023-01-22T15:59:01.724Z,102642.34
2023-01-22T16:04:05.738Z,102611.25
2023-01-22T16:09:11.727Z,102597.00
2023-01-22T16:14:15.583Z,102595.50
2023-01-22T16:19:20.368Z,102548.97
2023-01-22T16:24:24.179Z,102550.66
2023-01-22T16:29:30.556Z,102522.41
2023-01-22T16:34:34.692Z,102494.97
2023-01-22T16:39:38.909Z,102482.69
2023-01-22T16:44:42.786Z,102473.88
2023-01-22T16:49:46.928Z,102456.03
2023-01-22T16:55:51.776Z,102435.31
2023-01-22T17:00:55.771Z,102429.75
2023-01-22T17:06:00.605Z,102399.34
2023-01-22T17:11:06.610Z,102401.34
2023-01-22T17:16:11.981Z,102393.34
2023-01-22T17:21:19.999Z,102366.19
2023-01-22T17:26:23.979Z,102350.78
2023-01-22T17:31:28.095Z,102343.78
2023-01-22T17:36:33.656Z,102306.69
2023-01-22T17:41:37.377Z,102228.41
2023-01-22T17:46:43.726Z,102294.34
2023-01-22T17:51:48.498Z,102285.47
2023-01-22T17:56:54.938Z,102277.44
2023-01-22T18:02:01.629Z,102278.09
2023-01-22T18:07:06.041Z,102260.25
2023-01-22T18:12:11.811Z,102248.13
2023-01-22T18:17:15.698Z,102241.06
2023-01-22T18:22:21.967Z,102214.53
2023-01-22T18:27:26.941Z,102221.28
2023-01-22T18:32:32.927Z,102202.59
2023-01-22T18:37:38.307Z,102204.94
2023-01-22T18:42:44.522Z,102183.66
2023-01-22T18:47:56.658Z,102157.41
2023-01-22T18:53:04.029Z,102155.31
2023-01-22T18:58:20.603Z,102100.09
2023-01-22T19:03:27.718Z,102128.38
2023-01-22T19:08:31.621Z,102099.19
2023-01-22T19:13:36.191Z,102095.53
2023-01-22T19:18:44.325Z,102070.56
2023-01-22T19:23:55.170Z,102073.31
2023-01-22T19:29:05.382Z,102067.13
2023-01-22T19:34:13.039Z,102049.78
2023-01-22T19:39:16.463Z,102043.31
2023-01-22T19:44:21.196Z,102046.94
2023-01-22T19:49:25.781Z,102035.31
2023-01-22T19:54:29.723Z,102019.69
2023-01-22T19:59:35.939Z,102016.72
2023-01-22T20:04:41.789Z,101989.88
2023-01-22T20:09:45.756Z,101991.25
2023-01-22T20:14:54.435Z,101950.69
2023-01-22T20:19:58.267Z,101897.75
2023-01-22T20:25:03.758Z,101954.06
2023-01-22T20:30:09.006Z,101966.91
2023-01-22T20:35:19.174Z,101951.97
2023-01-22T20:40:26.516Z,101946.16
2023-01-22T20:45:33.826Z,101934.53
2023-01-22T20:50:43.041Z,101902.34
2023-01-22T20:55:49.501Z,101909.53
2023-01-22T21:00:56.836Z,101907.00
2023-01-22T21:06:13.562Z,101901.25
2023-01-22T21:11:21.304Z,101901.47
2023-01-22T21:16:27.947Z,101873.88
2023-01-22T21:21:38.058Z,101849.69
2023-01-22T21:26:44.010Z,101819.91
2023-01-22T21:31:53.281Z,101842.34
2023-01-22T21:37:02.007Z,101807.53
2023-01-22T21:42:25.787Z,101825.78
2023-01-22T21:47:31.572Z,101789.34
2023-01-22T21:52:35.460Z,101798.19
2023-01-22T21:57:40.574Z,101782.38
2023-01-22T22:02:46.547Z,101771.53
2023-01-22T22:07:50.559Z,101753.88
2023-01-22T22:12:54.461Z,101749.16
2023-01-22T22:18:00.168Z,101742.53
2023-01-22T22:23:05.960Z,101734.25
2023-01-22T22:28:11.796Z,101729.97
2023-01-22T22:33:15.820Z,101724.94
2023-01-22T22:38:21.893Z,101707.38
2023-01-22T22:43:25.795Z,101726.97
2023-01-22T22:48:29.779Z,101699.34
2023-01-22T22:53:34.698Z,101692.66
2023-01-22T22:58:40.517Z,101697.75
2023-01-22T23:03:46.179Z,101683.53
2023-01-22T23:08:55.078Z,101683.53
2023-01-22T23:14:03.469Z,101674.31
2023-01-22T23:19:20.872Z,101662.53
2023-01-22T23:24:28.565Z,101662.47
2023-01-22T23:29:33.491Z,101646.59
2023-01-22T23:34:42.174Z,101612.91
2023-01-22T23:39:46.705Z,101625.56
2023-01-22T23:44:50.550Z,101611.31
2023-01-22T23:49:54.388Z,101602.91
2023-01-22T23:55:00.054Z,101581.00
